sensor_id;sensor_type;location;lat;lon;timestamp;P1;durP1;ratioP1;P2;durP2;ratioP2
5042;SDS011;2540;50.928;6.856;2023-07-24T00:00:43;3.43;;;3.03;;
5042;SDS011;2540;50.928;6.856;2023-07-24T00:03:08;5.10;;;2.50;;
5042;SDS011;2540;50.928;6.856;2023-07-24T00:05:34;4.03;;;2.87;;
5042;SDS011;2540;50.928;6.856;2023-07-24T00:07:59;4.67;;;3.03;;
5042;SDS011;2540;50.928;6.856;2023-07-24T00:10:24;4.90;;;3.07;;
5042;SDS011;2540;50.928;6.856;2023-07-24T00:12:50;6.30;;;2.93;;
5042;SDS011;2540;50.928;6.856;2023-07-24T00:15:15;6.37;;;3.70;;
5042;SDS011;2540;50.928;6.856;2023-07-24T00:17:40;6.13;;;3.07;;
5042;SDS011;2540;50.928;6.856;2023-07-24T00:20:06;10.80;;;3.40;;
5042;SDS011;2540;50.928;6.856;2023-07-24T00:22:32;5.33;;;3.43;;
5042;SDS011;2540;50.928;6.856;2023-07-24T00:24:57;5.20;;;3.70;;
5042;SDS011;2540;50.928;6.856;2023-07-24T00:27:22;5.53;;;3.17;;
5042;SDS011;2540;50.928;6.856;2023-07-24T00:29:48;4.53;;;3.60;;
5042;SDS011;2540;50.928;6.856;2023-07-24T00:32:13;10.13;;;4.60;;
5042;SDS011;2540;50.928;6.856;2023-07-24T00:34:38;8.00;;;4.00;;
5042;SDS011;2540;50.928;6.856;2023-07-24T00:37:04;8.47;;;4.00;;
5042;SDS011;2540;50.928;6.856;2023-07-24T00:39:29;7.40;;;4.43;;
5042;SDS011;2540;50.928;6.856;2023-07-24T00:41:55;8.47;;;4.43;;
5042;SDS011;2540;50.928;6.856;2023-07-24T00:44:20;10.83;;;4.03;;
5042;SDS011;2540;50.928;6.856;2023-07-24T00:46:45;5.57;;;3.10;;
5042;SDS011;2540;50.928;6.856;2023-07-24T00:49:11;5.80;;;4.20;;
5042;SDS011;2540;50.928;6.856;2023-07-24T00:51:36;5.27;;;3.30;;
5042;SDS011;2540;50.928;6.856;2023-07-24T00:54:02;4.23;;;2.80;;
5042;SDS011;2540;50.928;6.856;2023-07-24T00:56:28;6.90;;;3.00;;
5042;SDS011;2540;50.928;6.856;2023-07-24T00:58:54;3.93;;;2.80;;
5042;SDS011;2540;50.928;6.856;2023-07-24T01:01:23;4.90;;;3.60;;
5042;SDS011;2540;50.928;6.856;2023-07-24T01:03:49;5.03;;;3.53;;
5042;SDS011;2540;50.928;6.856;2023-07-24T01:06:14;5.90;;;3.17;;
5042;SDS011;2540;50.928;6.856;2023-07-24T01:08:39;4.93;;;3.27;;
5042;SDS011;2540;50.928;6.856;2023-07-24T01:11:15;10.53;;;3.53;;
5042;SDS011;2540;50.928;6.856;2023-07-24T01:13:51;9.83;;;3.90;;
5042;SDS011;2540;50.928;6.856;2023-07-24T01:16:42;6.60;;;3.80;;
5042;SDS011;2540;50.928;6.856;2023-07-24T01:19:12;8.10;;;3.87;;
5042;SDS011;2540;50.928;6.856;2023-07-24T01:21:58;4.60;;;3.30;;
5042;SDS011;2540;50.928;6.856;2023-07-24T01:24:33;5.40;;;2.87;;
5042;SDS011;2540;50.928;6.856;2023-07-24T01:27:24;11.00;;;3.93;;
5042;SDS011;2540;50.928;6.856;2023-07-24T01:29:49;5.23;;;3.17;;
5042;SDS011;2540;50.928;6.856;2023-07-24T01:32:15;12.30;;;3.10;;
5042;SDS011;2540;50.928;6.856;2023-07-24T01:34:40;17.20;;;3.50;;
5042;SDS011;2540;50.928;6.856;2023-07-24T01:37:05;5.30;;;3.57;;
5042;SDS011;2540;50.928;6.856;2023-07-24T01:39:31;5.47;;;3.47;;
5042;SDS011;2540;50.928;6.856;2023-07-24T01:41:56;4.83;;;3.20;;
5042;SDS011;2540;50.928;6.856;2023-07-24T01:44:23;5.00;;;3.37;;
5042;SDS011;2540;50.928;6.856;2023-07-24T01:46:48;3.40;;;2.80;;
5042;SDS011;2540;50.928;6.856;2023-07-24T01:49:14;4.77;;;3.50;;
5042;SDS011;2540;50.928;6.856;2023-07-24T01:51:39;4.93;;;3.57;;
5042;SDS011;2540;50.928;6.856;2023-07-24T01:54:04;3.40;;;2.63;;
5042;SDS011;2540;50.928;6.856;2023-07-24T01:56:29;5.20;;;3.00;;
5042;SDS011;2540;50.928;6.856;2023-07-24T01:58:55;7.33;;;3.10;;
5042;SDS011;2540;50.928;6.856;2023-07-24T02:01:20;4.50;;;3.10;;
5042;SDS011;2540;50.928;6.856;2023-07-24T02:03:45;5.63;;;3.40;;
5042;SDS011;2540;50.928;6.856;2023-07-24T02:06:11;5.97;;;2.80;;
5042;SDS011;2540;50.928;6.856;2023-07-24T02:08:36;3.20;;;2.60;;
5042;SDS011;2540;50.928;6.856;2023-07-24T02:11:01;4.90;;;3.30;;
5042;SDS011;2540;50.928;6.856;2023-07-24T02:13:27;5.13;;;2.80;;
5042;SDS011;2540;50.928;6.856;2023-07-24T02:15:52;4.23;;;2.83;;
5042;SDS011;2540;50.928;6.856;2023-07-24T02:18:18;6.30;;;3.40;;
5042;SDS011;2540;50.928;6.856;2023-07-24T02:20:50;5.43;;;3.30;;
5042;SDS011;2540;50.928;6.856;2023-07-24T02:23:16;6.97;;;3.57;;
5042;SDS011;2540;50.928;6.856;2023-07-24T02:25:41;6.93;;;3.70;;
5042;SDS011;2540;50.928;6.856;2023-07-24T02:28:08;6.00;;;4.00;;
5042;SDS011;2540;50.928;6.856;2023-07-24T02:30:36;8.00;;;3.40;;
5042;SDS011;2540;50.928;6.856;2023-07-24T02:33:02;8.93;;;3.83;;
5042;SDS011;2540;50.928;6.856;2023-07-24T02:35:28;7.23;;;4.00;;
5042;SDS011;2540;50.928;6.856;2023-07-24T02:37:53;8.97;;;3.90;;
5042;SDS011;2540;50.928;6.856;2023-07-24T02:40:18;9.93;;;3.93;;
5042;SDS011;2540;50.928;6.856;2023-07-24T02:42:44;8.03;;;3.10;;
5042;SDS011;2540;50.928;6.856;2023-07-24T02:45:09;6.97;;;3.90;;
5042;SDS011;2540;50.928;6.856;2023-07-24T02:47:36;7.77;;;3.83;;
5042;SDS011;2540;50.928;6.856;2023-07-24T02:50:01;8.00;;;3.60;;
5042;SDS011;2540;50.928;6.856;2023-07-24T02:52:27;10.10;;;3.90;;
5042;SDS011;2540;50.928;6.856;2023-07-24T02:54:52;10.13;;;4.10;;
5042;SDS011;2540;50.928;6.856;2023-07-24T02:57:17;7.43;;;3.97;;
5042;SDS011;2540;50.928;6.856;2023-07-24T02:59:42;6.70;;;3.10;;
5042;SDS011;2540;50.928;6.856;2023-07-24T03:02:08;5.90;;;3.10;;
5042;SDS011;2540;50.928;6.856;2023-07-24T03:04:33;6.97;;;3.50;;
5042;SDS011;2540;50.928;6.856;2023-07-24T03:06:58;7.27;;;3.70;;
5042;SDS011;2540;50.928;6.856;2023-07-24T03:09:24;8.63;;;5.13;;
5042;SDS011;2540;50.928;6.856;2023-07-24T03:11:49;14.90;;;3.60;;
5042;SDS011;2540;50.928;6.856;2023-07-24T03:14:15;8.17;;;3.90;;
5042;SDS011;2540;50.928;6.856;2023-07-24T03:16:40;6.03;;;3.57;;
5042;SDS011;2540;50.928;6.856;2023-07-24T03:19:05;5.80;;;3.53;;
5042;SDS011;2540;50.928;6.856;2023-07-24T03:21:31;8.20;;;4.33;;
5042;SDS011;2540;50.928;6.856;2023-07-24T03:23:56;5.10;;;3.37;;
5042;SDS011;2540;50.928;6.856;2023-07-24T03:26:21;7.43;;;3.90;;
5042;SDS011;2540;50.928;6.856;2023-07-24T03:28:46;5.87;;;3.50;;
5042;SDS011;2540;50.928;6.856;2023-07-24T03:31:12;7.90;;;4.17;;
5042;SDS011;2540;50.928;6.856;2023-07-24T03:33:37;9.03;;;4.03;;
5042;SDS011;2540;50.928;6.856;2023-07-24T03:36:02;6.60;;;3.17;;
5042;SDS011;2540;50.928;6.856;2023-07-24T03:38:28;6.57;;;4.17;;
5042;SDS011;2540;50.928;6.856;2023-07-24T03:40:54;3.27;;;2.43;;
5042;SDS011;2540;50.928;6.856;2023-07-24T03:43:19;6.30;;;3.00;;
5042;SDS011;2540;50.928;6.856;2023-07-24T03:45:44;5.00;;;3.47;;
5042;SDS011;2540;50.928;6.856;2023-07-24T03:48:10;7.70;;;3.17;;
5042;SDS011;2540;50.928;6.856;2023-07-24T03:50:35;7.80;;;3.40;;
5042;SDS011;2540;50.928;6.856;2023-07-24T03:53:01;8.60;;;4.00;;
5042;SDS011;2540;50.928;6.856;2023-07-24T03:55:26;4.37;;;3.57;;
5042;SDS011;2540;50.928;6.856;2023-07-24T03:57:51;5.07;;;3.00;;
5042;SDS011;2540;50.928;6.856;2023-07-24T04:00:17;11.27;;;4.37;;
5042;SDS011;2540;50.928;6.856;2023-07-24T04:02:46;8.23;;;3.87;;
5042;SDS011;2540;50.928;6.856;2023-07-24T04:05:12;15.73;;;3.70;;
5042;SDS011;2540;50.928;6.856;2023-07-24T04:07:37;6.30;;;3.83;;
5042;SDS011;2540;50.928;6.856;2023-07-24T04:10:02;6.10;;;3.67;;
5042;SDS011;2540;50.928;6.856;2023-07-24T04:12:28;6.77;;;3.50;;
5042;SDS011;2540;50.928;6.856;2023-07-24T04:14:54;5.70;;;4.00;;
5042;SDS011;2540;50.928;6.856;2023-07-24T04:17:19;9.37;;;4.07;;
5042;SDS011;2540;50.928;6.856;2023-07-24T04:19:44;9.80;;;4.60;;
5042;SDS011;2540;50.928;6.856;2023-07-24T04:22:09;6.17;;;4.17;;
5042;SDS011;2540;50.928;6.856;2023-07-24T04:24:35;5.90;;;3.67;;
5042;SDS011;2540;50.928;6.856;2023-07-24T04:27:00;6.93;;;3.40;;
5042;SDS011;2540;50.928;6.856;2023-07-24T04:29:25;15.77;;;4.20;;
5042;SDS011;2540;50.928;6.856;2023-07-24T04:31:51;7.50;;;4.37;;
5042;SDS011;2540;50.928;6.856;2023-07-24T04:34:16;6.50;;;4.70;;
5042;SDS011;2540;50.928;6.856;2023-07-24T04:36:42;8.20;;;4.27;;
5042;SDS011;2540;50.928;6.856;2023-07-24T04:39:07;9.10;;;4.07;;
5042;SDS011;2540;50.928;6.856;2023-07-24T04:41:32;6.43;;;3.90;;
5042;SDS011;2540;50.928;6.856;2023-07-24T04:43:58;7.80;;;4.20;;
5042;SDS011;2540;50.928;6.856;2023-07-24T04:46:23;6.87;;;4.10;;
5042;SDS011;2540;50.928;6.856;2023-07-24T04:48:48;6.80;;;4.10;;
5042;SDS011;2540;50.928;6.856;2023-07-24T04:51:14;6.30;;;3.60;;
5042;SDS011;2540;50.928;6.856;2023-07-24T04:53:39;7.73;;;3.60;;
5042;SDS011;2540;50.928;6.856;2023-07-24T04:56:04;6.80;;;4.10;;
5042;SDS011;2540;50.928;6.856;2023-07-24T04:58:30;5.80;;;3.57;;
5042;SDS011;2540;50.928;6.856;2023-07-24T05:00:55;6.67;;;3.87;;
5042;SDS011;2540;50.928;6.856;2023-07-24T05:03:20;7.57;;;3.87;;
5042;SDS011;2540;50.928;6.856;2023-07-24T05:05:53;10.73;;;4.17;;
5042;SDS011;2540;50.928;6.856;2023-07-24T05:08:19;11.33;;;4.97;;
5042;SDS011;2540;50.928;6.856;2023-07-24T05:10:45;6.70;;;3.93;;
5042;SDS011;2540;50.928;6.856;2023-07-24T05:13:10;7.40;;;4.03;;
5042;SDS011;2540;50.928;6.856;2023-07-24T05:15:35;9.40;;;4.60;;
5042;SDS011;2540;50.928;6.856;2023-07-24T05:18:01;7.50;;;4.00;;
5042;SDS011;2540;50.928;6.856;2023-07-24T05:20:26;6.97;;;4.07;;
5042;SDS011;2540;50.928;6.856;2023-07-24T05:22:51;10.83;;;4.40;;
5042;SDS011;2540;50.928;6.856;2023-07-24T05:25:16;7.97;;;3.73;;
5042;SDS011;2540;50.928;6.856;2023-07-24T05:27:42;8.20;;;4.27;;
5042;SDS011;2540;50.928;6.856;2023-07-24T05:30:07;10.03;;;4.30;;
5042;SDS011;2540;50.928;6.856;2023-07-24T05:32:33;5.90;;;3.10;;
5042;SDS011;2540;50.928;6.856;2023-07-24T05:34:58;12.43;;;3.93;;
5042;SDS011;2540;50.928;6.856;2023-07-24T05:37:24;8.77;;;3.60;;
5042;SDS011;2540;50.928;6.856;2023-07-24T05:39:49;9.83;;;3.47;;
5042;SDS011;2540;50.928;6.856;2023-07-24T05:42:14;9.30;;;3.93;;
5042;SDS011;2540;50.928;6.856;2023-07-24T05:44:39;5.83;;;3.70;;
5042;SDS011;2540;50.928;6.856;2023-07-24T05:47:05;6.37;;;4.00;;
5042;SDS011;2540;50.928;6.856;2023-07-24T05:49:30;5.90;;;3.33;;
5042;SDS011;2540;50.928;6.856;2023-07-24T05:51:55;4.37;;;3.13;;
5042;SDS011;2540;50.928;6.856;2023-07-24T05:54:21;7.20;;;3.63;;
5042;SDS011;2540;50.928;6.856;2023-07-24T05:56:47;9.60;;;3.80;;
5042;SDS011;2540;50.928;6.856;2023-07-24T05:59:12;4.93;;;3.20;;
5042;SDS011;2540;50.928;6.856;2023-07-24T06:01:38;6.67;;;3.67;;
5042;SDS011;2540;50.928;6.856;2023-07-24T06:04:03;8.67;;;3.87;;
5042;SDS011;2540;50.928;6.856;2023-07-24T06:06:28;9.83;;;3.97;;
5042;SDS011;2540;50.928;6.856;2023-07-24T06:08:54;5.13;;;3.57;;
5042;SDS011;2540;50.928;6.856;2023-07-24T06:11:19;10.57;;;3.60;;
5042;SDS011;2540;50.928;6.856;2023-07-24T06:13:44;9.43;;;4.30;;
5042;SDS011;2540;50.928;6.856;2023-07-24T06:16:10;7.10;;;3.60;;
5042;SDS011;2540;50.928;6.856;2023-07-24T06:18:37;5.83;;;3.63;;
5042;SDS011;2540;50.928;6.856;2023-07-24T06:21:03;6.23;;;3.23;;
5042;SDS011;2540;50.928;6.856;2023-07-24T06:23:28;6.40;;;3.50;;
5042;SDS011;2540;50.928;6.856;2023-07-24T06:25:53;8.20;;;3.80;;
5042;SDS011;2540;50.928;6.856;2023-07-24T06:28:20;6.90;;;3.70;;
5042;SDS011;2540;50.928;6.856;2023-07-24T06:30:45;9.70;;;2.90;;
5042;SDS011;2540;50.928;6.856;2023-07-24T06:33:11;8.30;;;3.07;;
5042;SDS011;2540;50.928;6.856;2023-07-24T06:35:36;6.63;;;3.03;;
5042;SDS011;2540;50.928;6.856;2023-07-24T06:38:01;4.00;;;2.80;;
5042;SDS011;2540;50.928;6.856;2023-07-24T06:40:27;4.70;;;2.80;;
5042;SDS011;2540;50.928;6.856;2023-07-24T06:42:52;3.97;;;2.70;;
5042;SDS011;2540;50.928;6.856;2023-07-24T06:45:18;7.60;;;3.20;;
5042;SDS011;2540;50.928;6.856;2023-07-24T06:47:43;5.67;;;2.67;;
5042;SDS011;2540;50.928;6.856;2023-07-24T06:50:08;4.50;;;2.77;;
5042;SDS011;2540;50.928;6.856;2023-07-24T06:52:34;4.50;;;2.40;;
5042;SDS011;2540;50.928;6.856;2023-07-24T06:54:59;6.20;;;2.83;;
5042;SDS011;2540;50.928;6.856;2023-07-24T06:57:25;3.93;;;2.60;;
5042;SDS011;2540;50.928;6.856;2023-07-24T06:59:50;5.30;;;3.00;;
5042;SDS011;2540;50.928;6.856;2023-07-24T07:02:16;3.90;;;2.70;;
5042;SDS011;2540;50.928;6.856;2023-07-24T07:04:41;3.93;;;2.53;;
5042;SDS011;2540;50.928;6.856;2023-07-24T07:07:06;8.13;;;3.00;;
5042;SDS011;2540;50.928;6.856;2023-07-24T07:09:32;3.03;;;2.20;;
5042;SDS011;2540;50.928;6.856;2023-07-24T07:11:57;3.03;;;2.43;;
5042;SDS011;2540;50.928;6.856;2023-07-24T07:14:22;3.87;;;2.30;;
5042;SDS011;2540;50.928;6.856;2023-07-24T07:16:48;4.80;;;2.43;;
5042;SDS011;2540;50.928;6.856;2023-07-24T07:19:13;4.43;;;3.10;;
5042;SDS011;2540;50.928;6.856;2023-07-24T07:21:38;8.20;;;2.87;;
5042;SDS011;2540;50.928;6.856;2023-07-24T07:24:04;4.47;;;2.63;;
5042;SDS011;2540;50.928;6.856;2023-07-24T07:26:29;3.40;;;2.40;;
5042;SDS011;2540;50.928;6.856;2023-07-24T07:28:55;3.50;;;2.13;;
5042;SDS011;2540;50.928;6.856;2023-07-24T07:31:20;3.47;;;2.30;;
5042;SDS011;2540;50.928;6.856;2023-07-24T07:33:46;3.30;;;2.07;;
5042;SDS011;2540;50.928;6.856;2023-07-24T07:36:11;5.37;;;3.00;;
5042;SDS011;2540;50.928;6.856;2023-07-24T07:38:37;4.23;;;2.87;;
5042;SDS011;2540;50.928;6.856;2023-07-24T07:41:04;3.10;;;2.43;;
5042;SDS011;2540;50.928;6.856;2023-07-24T07:43:30;4.60;;;2.60;;
5042;SDS011;2540;50.928;6.856;2023-07-24T07:45:56;3.80;;;2.50;;
5042;SDS011;2540;50.928;6.856;2023-07-24T07:48:21;4.77;;;2.47;;
5042;SDS011;2540;50.928;6.856;2023-07-24T07:50:50;4.53;;;2.90;;
5042;SDS011;2540;50.928;6.856;2023-07-24T07:53:16;3.63;;;2.40;;
5042;SDS011;2540;50.928;6.856;2023-07-24T07:55:41;12.83;;;3.03;;
5042;SDS011;2540;50.928;6.856;2023-07-24T07:58:07;4.23;;;2.50;;
5042;SDS011;2540;50.928;6.856;2023-07-24T08:00:32;3.70;;;2.63;;
5042;SDS011;2540;50.928;6.856;2023-07-24T08:02:57;6.17;;;3.03;;
5042;SDS011;2540;50.928;6.856;2023-07-24T08:05:23;6.03;;;2.70;;
5042;SDS011;2540;50.928;6.856;2023-07-24T08:07:48;3.73;;;2.50;;
5042;SDS011;2540;50.928;6.856;2023-07-24T08:10:13;5.23;;;3.10;;
5042;SDS011;2540;50.928;6.856;2023-07-24T08:12:41;5.33;;;2.93;;
5042;SDS011;2540;50.928;6.856;2023-07-24T08:15:06;6.47;;;2.93;;
5042;SDS011;2540;50.928;6.856;2023-07-24T08:17:32;4.67;;;2.60;;
5042;SDS011;2540;50.928;6.856;2023-07-24T08:19:57;3.47;;;2.10;;
5042;SDS011;2540;50.928;6.856;2023-07-24T08:22:22;4.20;;;2.93;;
5042;SDS011;2540;50.928;6.856;2023-07-24T08:24:48;4.80;;;2.50;;
5042;SDS011;2540;50.928;6.856;2023-07-24T08:27:15;4.10;;;2.83;;
5042;SDS011;2540;50.928;6.856;2023-07-24T08:29:40;4.97;;;2.67;;
5042;SDS011;2540;50.928;6.856;2023-07-24T08:32:06;2.83;;;2.00;;
5042;SDS011;2540;50.928;6.856;2023-07-24T08:34:32;4.30;;;2.27;;
5042;SDS011;2540;50.928;6.856;2023-07-24T08:36:57;3.97;;;2.17;;
5042;SDS011;2540;50.928;6.856;2023-07-24T08:39:22;4.50;;;2.70;;
5042;SDS011;2540;50.928;6.856;2023-07-24T08:41:48;3.43;;;2.23;;
5042;SDS011;2540;50.928;6.856;2023-07-24T08:44:13;4.10;;;2.87;;
5042;SDS011;2540;50.928;6.856;2023-07-24T08:46:38;4.67;;;2.73;;
5042;SDS011;2540;50.928;6.856;2023-07-24T08:49:06;5.50;;;2.70;;
5042;SDS011;2540;50.928;6.856;2023-07-24T08:51:35;3.50;;;2.43;;
5042;SDS011;2540;50.928;6.856;2023-07-24T08:54:00;4.67;;;2.80;;
5042;SDS011;2540;50.928;6.856;2023-07-24T08:56:26;4.73;;;2.30;;
5042;SDS011;2540;50.928;6.856;2023-07-24T08:58:51;7.77;;;3.10;;
5042;SDS011;2540;50.928;6.856;2023-07-24T09:01:16;3.33;;;2.60;;
5042;SDS011;2540;50.928;6.856;2023-07-24T09:03:42;6.27;;;2.73;;
5042;SDS011;2540;50.928;6.856;2023-07-24T09:06:07;3.27;;;2.33;;
5042;SDS011;2540;50.928;6.856;2023-07-24T09:08:34;3.60;;;2.43;;
5042;SDS011;2540;50.928;6.856;2023-07-24T09:11:00;3.00;;;2.10;;
5042;SDS011;2540;50.928;6.856;2023-07-24T09:13:26;3.90;;;2.60;;
5042;SDS011;2540;50.928;6.856;2023-07-24T09:15:52;3.93;;;2.13;;
5042;SDS011;2540;50.928;6.856;2023-07-24T09:18:18;3.37;;;1.90;;
5042;SDS011;2540;50.928;6.856;2023-07-24T09:20:44;5.40;;;2.20;;
5042;SDS011;2540;50.928;6.856;2023-07-24T09:23:10;5.07;;;2.60;;
5042;SDS011;2540;50.928;6.856;2023-07-24T09:25:38;3.47;;;2.30;;
5042;SDS011;2540;50.928;6.856;2023-07-24T09:28:11;3.90;;;1.83;;
5042;SDS011;2540;50.928;6.856;2023-07-24T09:30:40;3.73;;;2.30;;
5042;SDS011;2540;50.928;6.856;2023-07-24T09:33:07;3.13;;;2.00;;
5042;SDS011;2540;50.928;6.856;2023-07-24T09:35:33;3.80;;;2.20;;
5042;SDS011;2540;50.928;6.856;2023-07-24T09:38:17;2.60;;;1.90;;
5042;SDS011;2540;50.928;6.856;2023-07-24T09:40:43;4.57;;;2.13;;
5042;SDS011;2540;50.928;6.856;2023-07-24T09:43:20;3.13;;;2.13;;
5042;SDS011;2540;50.928;6.856;2023-07-24T09:45:47;2.90;;;1.87;;
5042;SDS011;2540;50.928;6.856;2023-07-24T09:48:14;3.30;;;2.00;;
5042;SDS011;2540;50.928;6.856;2023-07-24T09:50:47;3.10;;;2.13;;
5042;SDS011;2540;50.928;6.856;2023-07-24T09:53:14;3.80;;;1.80;;
5042;SDS011;2540;50.928;6.856;2023-07-24T09:55:47;4.90;;;2.53;;
5042;SDS011;2540;50.928;6.856;2023-07-24T09:58:14;2.70;;;2.00;;
5042;SDS011;2540;50.928;6.856;2023-07-24T10:00:40;2.97;;;1.80;;
5042;SDS011;2540;50.928;6.856;2023-07-24T10:03:06;3.33;;;2.00;;
5042;SDS011;2540;50.928;6.856;2023-07-24T10:05:31;5.40;;;2.40;;
5042;SDS011;2540;50.928;6.856;2023-07-24T10:07:56;4.93;;;2.40;;
5042;SDS011;2540;50.928;6.856;2023-07-24T10:10:22;6.70;;;2.67;;
5042;SDS011;2540;50.928;6.856;2023-07-24T10:12:48;2.50;;;2.03;;
5042;SDS011;2540;50.928;6.856;2023-07-24T10:15:14;2.60;;;1.90;;
5042;SDS011;2540;50.928;6.856;2023-07-24T10:17:40;6.10;;;2.60;;
5042;SDS011;2540;50.928;6.856;2023-07-24T10:20:07;4.50;;;2.20;;
5042;SDS011;2540;50.928;6.856;2023-07-24T10:22:36;4.60;;;2.67;;
5042;SDS011;2540;50.928;6.856;2023-07-24T10:25:06;4.60;;;2.47;;
5042;SDS011;2540;50.928;6.856;2023-07-24T10:27:35;4.80;;;2.60;;
5042;SDS011;2540;50.928;6.856;2023-07-24T10:30:01;2.47;;;1.60;;
5042;SDS011;2540;50.928;6.856;2023-07-24T10:32:27;7.33;;;2.57;;
5042;SDS011;2540;50.928;6.856;2023-07-24T10:34:57;4.50;;;2.47;;
5042;SDS011;2540;50.928;6.856;2023-07-24T10:37:35;3.17;;;2.30;;
5042;SDS011;2540;50.928;6.856;2023-07-24T10:40:02;3.07;;;1.97;;
5042;SDS011;2540;50.928;6.856;2023-07-24T10:42:29;6.53;;;2.47;;
5042;SDS011;2540;50.928;6.856;2023-07-24T10:45:05;3.33;;;2.13;;
5042;SDS011;2540;50.928;6.856;2023-07-24T10:47:31;3.10;;;2.07;;
5042;SDS011;2540;50.928;6.856;2023-07-24T10:49:57;3.50;;;2.57;;
5042;SDS011;2540;50.928;6.856;2023-07-24T10:52:32;3.00;;;1.80;;
5042;SDS011;2540;50.928;6.856;2023-07-24T10:55:04;3.23;;;1.90;;
5042;SDS011;2540;50.928;6.856;2023-07-24T10:57:30;3.37;;;2.00;;
5042;SDS011;2540;50.928;6.856;2023-07-24T10:59:56;6.00;;;2.30;;
5042;SDS011;2540;50.928;6.856;2023-07-24T11:02:21;3.03;;;2.00;;
5042;SDS011;2540;50.928;6.856;2023-07-24T11:04:46;3.30;;;2.03;;
5042;SDS011;2540;50.928;6.856;2023-07-24T11:07:12;4.03;;;2.40;;
5042;SDS011;2540;50.928;6.856;2023-07-24T11:09:38;3.23;;;2.00;;
5042;SDS011;2540;50.928;6.856;2023-07-24T11:12:14;6.57;;;2.57;;
5042;SDS011;2540;50.928;6.856;2023-07-24T11:14:49;4.90;;;2.57;;
5042;SDS011;2540;50.928;6.856;2023-07-24T11:17:16;11.07;;;2.33;;
5042;SDS011;2540;50.928;6.856;2023-07-24T11:19:41;3.40;;;2.20;;
5042;SDS011;2540;50.928;6.856;2023-07-24T11:22:07;4.53;;;2.20;;
5042;SDS011;2540;50.928;6.856;2023-07-24T11:24:32;5.47;;;2.67;;
5042;SDS011;2540;50.928;6.856;2023-07-24T11:26:57;6.67;;;3.70;;
5042;SDS011;2540;50.928;6.856;2023-07-24T11:29:23;3.63;;;1.97;;
5042;SDS011;2540;50.928;6.856;2023-07-24T11:31:53;3.43;;;2.10;;
5042;SDS011;2540;50.928;6.856;2023-07-24T11:34:19;2.50;;;2.00;;
5042;SDS011;2540;50.928;6.856;2023-07-24T11:36:45;6.10;;;2.23;;
5042;SDS011;2540;50.928;6.856;2023-07-24T11:39:10;4.07;;;2.30;;
5042;SDS011;2540;50.928;6.856;2023-07-24T11:41:35;7.40;;;2.00;;
5042;SDS011;2540;50.928;6.856;2023-07-24T11:44:01;4.80;;;2.40;;
5042;SDS011;2540;50.928;6.856;2023-07-24T11:46:27;3.20;;;1.50;;
5042;SDS011;2540;50.928;6.856;2023-07-24T11:48:54;8.63;;;1.70;;
5042;SDS011;2540;50.928;6.856;2023-07-24T11:51:21;1.50;;;1.13;;
5042;SDS011;2540;50.928;6.856;2023-07-24T11:53:47;2.07;;;1.47;;
5042;SDS011;2540;50.928;6.856;2023-07-24T11:56:13;4.27;;;1.40;;
5042;SDS011;2540;50.928;6.856;2023-07-24T11:58:39;4.03;;;1.57;;
5042;SDS011;2540;50.928;6.856;2023-07-24T12:01:05;2.80;;;1.50;;
5042;SDS011;2540;50.928;6.856;2023-07-24T12:03:30;2.40;;;1.63;;
5042;SDS011;2540;50.928;6.856;2023-07-24T12:05:55;3.10;;;1.80;;
5042;SDS011;2540;50.928;6.856;2023-07-24T12:08:29;4.27;;;1.97;;
5042;SDS011;2540;50.928;6.856;2023-07-24T12:10:59;2.73;;;1.97;;
5042;SDS011;2540;50.928;6.856;2023-07-24T12:13:24;2.33;;;2.00;;
5042;SDS011;2540;50.928;6.856;2023-07-24T12:15:49;3.40;;;2.00;;
5042;SDS011;2540;50.928;6.856;2023-07-24T12:18:15;3.30;;;2.30;;
5042;SDS011;2540;50.928;6.856;2023-07-24T12:20:40;3.67;;;2.10;;
5042;SDS011;2540;50.928;6.856;2023-07-24T12:23:06;5.87;;;2.43;;
5042;SDS011;2540;50.928;6.856;2023-07-24T12:25:31;4.87;;;2.50;;
5042;SDS011;2540;50.928;6.856;2023-07-24T12:27:56;3.93;;;2.20;;
5042;SDS011;2540;50.928;6.856;2023-07-24T12:30:22;2.63;;;1.80;;
5042;SDS011;2540;50.928;6.856;2023-07-24T12:32:47;5.13;;;2.53;;
5042;SDS011;2540;50.928;6.856;2023-07-24T12:35:13;3.40;;;2.30;;
5042;SDS011;2540;50.928;6.856;2023-07-24T12:37:38;5.23;;;2.80;;
5042;SDS011;2540;50.928;6.856;2023-07-24T12:40:04;5.27;;;1.80;;
5042;SDS011;2540;50.928;6.856;2023-07-24T12:42:30;3.70;;;1.50;;
5042;SDS011;2540;50.928;6.856;2023-07-24T12:44:55;2.90;;;1.97;;
5042;SDS011;2540;50.928;6.856;2023-07-24T12:47:21;2.70;;;1.60;;
5042;SDS011;2540;50.928;6.856;2023-07-24T12:49:47;4.43;;;1.70;;
5042;SDS011;2540;50.928;6.856;2023-07-24T12:52:12;2.93;;;1.93;;
5042;SDS011;2540;50.928;6.856;2023-07-24T12:54:37;2.73;;;1.50;;
5042;SDS011;2540;50.928;6.856;2023-07-24T12:57:03;2.27;;;1.77;;
5042;SDS011;2540;50.928;6.856;2023-07-24T12:59:28;3.43;;;2.13;;
5042;SDS011;2540;50.928;6.856;2023-07-24T13:01:54;4.83;;;2.10;;
5042;SDS011;2540;50.928;6.856;2023-07-24T13:04:19;4.70;;;2.30;;
5042;SDS011;2540;50.928;6.856;2023-07-24T13:06:45;7.83;;;2.80;;
5042;SDS011;2540;50.928;6.856;2023-07-24T13:09:10;3.20;;;2.17;;
5042;SDS011;2540;50.928;6.856;2023-07-24T13:11:35;4.43;;;2.37;;
5042;SDS011;2540;50.928;6.856;2023-07-24T13:14:01;2.27;;;2.00;;
5042;SDS011;2540;50.928;6.856;2023-07-24T13:16:26;3.00;;;1.60;;
5042;SDS011;2540;50.928;6.856;2023-07-24T13:18:52;3.03;;;1.40;;
5042;SDS011;2540;50.928;6.856;2023-07-24T13:21:17;4.80;;;1.70;;
5042;SDS011;2540;50.928;6.856;2023-07-24T13:23:43;2.40;;;1.23;;
5042;SDS011;2540;50.928;6.856;2023-07-24T13:26:08;4.50;;;1.40;;
5042;SDS011;2540;50.928;6.856;2023-07-24T13:28:35;2.30;;;1.40;;
5042;SDS011;2540;50.928;6.856;2023-07-24T13:31:14;2.17;;;1.43;;
5042;SDS011;2540;50.928;6.856;2023-07-24T13:33:40;2.37;;;1.13;;
5042;SDS011;2540;50.928;6.856;2023-07-24T13:36:06;1.90;;;1.47;;
5042;SDS011;2540;50.928;6.856;2023-07-24T13:38:31;2.47;;;1.60;;
5042;SDS011;2540;50.928;6.856;2023-07-24T13:40:57;2.87;;;1.60;;
5042;SDS011;2540;50.928;6.856;2023-07-24T13:43:23;2.70;;;1.30;;
5042;SDS011;2540;50.928;6.856;2023-07-24T13:45:48;1.63;;;1.27;;
5042;SDS011;2540;50.928;6.856;2023-07-24T13:48:13;2.30;;;1.40;;
5042;SDS011;2540;50.928;6.856;2023-07-24T13:50:39;3.63;;;1.50;;
5042;SDS011;2540;50.928;6.856;2023-07-24T13:53:04;1.90;;;1.40;;
5042;SDS011;2540;50.928;6.856;2023-07-24T13:55:30;4.17;;;1.70;;
5042;SDS011;2540;50.928;6.856;2023-07-24T13:57:55;1.90;;;1.50;;
5042;SDS011;2540;50.928;6.856;2023-07-24T14:00:20;2.03;;;1.60;;
5042;SDS011;2540;50.928;6.856;2023-07-24T14:02:46;2.60;;;1.70;;
5042;SDS011;2540;50.928;6.856;2023-07-24T14:05:11;3.53;;;1.57;;
5042;SDS011;2540;50.928;6.856;2023-07-24T14:07:36;5.03;;;1.80;;
5042;SDS011;2540;50.928;6.856;2023-07-24T14:10:02;1.63;;;1.10;;
5042;SDS011;2540;50.928;6.856;2023-07-24T14:12:27;1.20;;;1.10;;
5042;SDS011;2540;50.928;6.856;2023-07-24T14:14:52;1.60;;;1.30;;
5042;SDS011;2540;50.928;6.856;2023-07-24T14:17:18;1.17;;;0.93;;
5042;SDS011;2540;50.928;6.856;2023-07-24T14:19:44;1.60;;;1.17;;
5042;SDS011;2540;50.928;6.856;2023-07-24T14:22:09;1.57;;;1.20;;
5042;SDS011;2540;50.928;6.856;2023-07-24T14:24:35;1.97;;;1.27;;
5042;SDS011;2540;50.928;6.856;2023-07-24T14:27:00;2.27;;;1.13;;
5042;SDS011;2540;50.928;6.856;2023-07-24T14:29:25;4.80;;;1.57;;
5042;SDS011;2540;50.928;6.856;2023-07-24T14:31:51;1.30;;;1.20;;
5042;SDS011;2540;50.928;6.856;2023-07-24T14:34:16;2.03;;;1.23;;
5042;SDS011;2540;50.928;6.856;2023-07-24T14:36:41;2.23;;;1.60;;
5042;SDS011;2540;50.928;6.856;2023-07-24T14:39:07;2.63;;;1.60;;
5042;SDS011;2540;50.928;6.856;2023-07-24T14:41:33;3.00;;;1.40;;
5042;SDS011;2540;50.928;6.856;2023-07-24T14:43:59;2.10;;;1.60;;
5042;SDS011;2540;50.928;6.856;2023-07-24T14:46:24;1.90;;;1.30;;
5042;SDS011;2540;50.928;6.856;2023-07-24T14:48:50;2.13;;;1.40;;
5042;SDS011;2540;50.928;6.856;2023-07-24T14:51:15;2.37;;;1.40;;
5042;SDS011;2540;50.928;6.856;2023-07-24T14:53:40;2.80;;;1.50;;
5042;SDS011;2540;50.928;6.856;2023-07-24T14:56:06;2.77;;;1.40;;
5042;SDS011;2540;50.928;6.856;2023-07-24T14:58:31;3.50;;;1.40;;
5042;SDS011;2540;50.928;6.856;2023-07-24T15:00:57;2.07;;;1.53;;
5042;SDS011;2540;50.928;6.856;2023-07-24T15:03:22;2.13;;;1.30;;
5042;SDS011;2540;50.928;6.856;2023-07-24T15:05:47;1.80;;;1.50;;
5042;SDS011;2540;50.928;6.856;2023-07-24T15:08:13;1.80;;;1.37;;